Time;durP1;ratioP1;P1;durP2;ratioP2;P2;SDS_P1;SDS_P2;PMS_P1;PMS_P2;Temp;Humidity;BMP_temperature;BMP_pressure;BME280_temperature;BME280_humidity;BME280_pressure;Samples;Min_cycle;Max_cycle;Signal;HPM_P1;HPM_P2
2022/07/23 00:01:31;;;;;;;15.68;10.40;;;21.80;99.90;;;;;;5125951;27;20039;-74
2022/07/23 00:03:57;;;;;;;19.10;11.00;;;21.80;99.90;;;;;;5128467;27;20047;-74
2022/07/23 00:06:23;;;;;;;14.00;11.13;;;21.80;99.90;;;;;;5123902;27;20543;-73
2022/07/23 00:08:49;;;;;;;16.15;11.63;;;21.80;99.90;;;;;;5126931;27;20137;-74
2022/07/23 00:11:15;;;;;;;16.60;11.57;;;21.80;99.90;;;;;;5126485;27;20111;-74
2022/07/23 00:13:41;;;;;;;13.68;10.30;;;21.80;99.90;;;;;;5126962;27;20047;-74
2022/07/23 00:16:07;;;;;;;14.60;10.60;;;21.80;99.90;;;;;;5127189;27;20047;-74
2022/07/23 00:18:33;;;;;;;16.42;10.85;;;21.70;99.90;;;;;;5125751;27;20573;-74
2022/07/23 00:20:59;;;;;;;13.07;10.43;;;21.70;99.90;;;;;;5126596;27;20047;-74
2022/07/23 00:23:24;;;;;;;14.18;10.65;;;21.80;99.90;;;;;;5126322;27;20678;-74
2022/07/23 00:25:51;;;;;;;13.10;10.18;;;21.80;99.90;;;;;;5125485;27;20501;-74
2022/07/23 00:28:18;;;;;;;15.50;10.00;;;21.80;99.90;;;;;;5126334;27;20489;-74
2022/07/23 00:30:44;;;;;;;13.50;9.70;;;21.80;99.90;;;;;;5107267;27;20400;-74
2022/07/23 00:33:10;;;;;;;16.70;10.50;;;21.80;99.90;;;;;;5123759;27;20039;-74
2022/07/23 00:35:40;;;;;;;14.85;9.20;;;21.80;99.90;;;;;;5126128;27;20047;-73
2022/07/23 00:38:08;;;;;;;13.80;10.65;;;21.80;99.90;;;;;;5127268;27;20047;-73
2022/07/23 00:40:34;;;;;;;14.70;10.20;;;21.80;99.90;;;;;;5127225;27;20591;-73
2022/07/23 00:43:00;;;;;;;14.75;9.88;;;21.90;99.90;;;;;;5128276;27;20039;-74
2022/07/23 00:45:26;;;;;;;13.10;9.85;;;21.80;99.90;;;;;;5127521;27;20051;-74
2022/07/23 00:47:52;;;;;;;13.15;9.88;;;21.80;99.90;;;;;;5128669;27;20501;-74
2022/07/23 00:50:18;;;;;;;16.15;10.60;;;21.80;99.90;;;;;;5125236;27;20068;-74
2022/07/23 00:52:44;;;;;;;13.07;9.85;;;21.80;99.90;;;;;;5126435;27;20082;-74
2022/07/23 00:55:11;;;;;;;14.57;11.20;;;21.70;99.90;;;;;;5128216;27;20040;-74
2022/07/23 00:57:38;;;;;;;14.68;9.95;;;21.70;99.90;;;;;;5127538;27;20043;-74
2022/07/23 01:00:10;;;;;;;13.57;10.27;;;21.70;99.90;;;;;;5126068;27;20496;-74
2022/07/23 01:02:37;;;;;;;12.20;9.65;;;21.70;99.90;;;;;;5125167;27;20566;-73
2022/07/23 01:05:03;;;;;;;13.88;10.65;;;21.70;99.90;;;;;;5143455;27;20539;-74
2022/07/23 01:07:29;;;;;;;15.25;10.98;;;21.60;99.90;;;;;;5124347;27;20051;-74
2022/07/23 01:09:55;;;;;;;15.75;10.40;;;21.60;99.90;;;;;;5126615;27;20525;-74
2022/07/23 01:12:21;;;;;;;13.35;10.00;;;21.60;99.90;;;;;;5125898;27;20073;-74
2022/07/23 01:15:00;;;;;;;14.30;10.85;;;21.60;99.90;;;;;;5125295;27;20047;-74
2022/07/23 01:17:26;;;;;;;16.50;11.48;;;21.60;99.90;;;;;;5123683;27;20087;-73
2022/07/23 01:19:52;;;;;;;19.35;11.88;;;21.50;99.90;;;;;;5109610;27;20039;-74
2022/07/23 01:22:19;;;;;;;15.05;11.45;;;21.50;99.90;;;;;;5125263;27;20054;-74
2022/07/23 01:24:45;;;;;;;15.45;11.82;;;21.50;99.90;;;;;;5125735;27;20027;-74
2022/07/23 01:27:12;;;;;;;14.38;10.90;;;21.40;99.90;;;;;;5125155;27;20039;-74
2022/07/23 01:29:38;;;;;;;15.55;10.75;;;21.50;99.90;;;;;;5126311;27;20039;-74
2022/07/23 01:32:05;;;;;;;14.75;11.32;;;21.50;99.90;;;;;;5126735;27;20039;-74
2022/07/23 01:34:31;;;;;;;20.58;12.40;;;21.50;99.90;;;;;;5125665;27;20082;-74
2022/07/23 01:36:56;;;;;;;20.13;12.10;;;21.50;99.90;;;;;;5126497;27;20361;-74
2022/07/23 01:39:22;;;;;;;14.38;11.52;;;21.40;99.90;;;;;;5124879;27;20031;-74
2022/07/23 01:41:48;;;;;;;17.00;12.57;;;21.40;99.90;;;;;;5126381;27;20046;-73
2022/07/23 01:44:14;;;;;;;17.15;12.15;;;21.30;99.90;;;;;;5124510;27;20134;-74
2022/07/23 01:46:39;;;;;;;16.67;13.48;;;21.40;99.90;;;;;;5123981;27;20039;-73
2022/07/23 01:49:05;;;;;;;17.60;12.30;;;21.30;99.90;;;;;;5124541;27;20564;-74
2022/07/23 01:51:31;;;;;;;18.33;11.50;;;21.40;99.90;;;;;;5123425;27;20036;-74
2022/07/23 01:53:56;;;;;;;16.70;13.13;;;21.40;99.90;;;;;;5125813;27;20052;-74
2022/07/23 01:56:22;;;;;;;18.02;13.40;;;21.30;99.90;;;;;;5126701;27;20046;-74
2022/07/23 01:58:49;;;;;;;19.65;13.43;;;21.40;99.90;;;;;;5125575;27;20047;-74
2022/07/23 02:01:14;;;;;;;19.00;13.32;;;21.30;99.90;;;;;;5124946;27;20539;-74
2022/07/23 02:03:40;;;;;;;18.52;13.02;;;21.30;99.90;;;;;;5126511;27;20063;-74
2022/07/23 02:06:06;;;;;;;24.85;15.23;;;21.30;99.90;;;;;;5126070;27;20035;-74
2022/07/23 02:08:31;;;;;;;20.15;12.10;;;21.30;99.90;;;;;;5124760;27;20062;-74
2022/07/23 02:10:57;;;;;;;23.70;13.32;;;21.30;99.90;;;;;;5126347;27;20417;-73
2022/07/23 02:13:23;;;;;;;18.58;12.82;;;21.20;99.90;;;;;;5125319;27;20071;-74
2022/07/23 02:15:49;;;;;;;25.15;15.93;;;21.20;99.90;;;;;;5125833;27;20040;-74
2022/07/23 02:18:15;;;;;;;25.17;15.65;;;21.20;99.90;;;;;;5124859;27;20073;-74
2022/07/23 02:20:42;;;;;;;26.40;15.25;;;21.20;99.90;;;;;;5125376;27;20035;-74
2022/07/23 02:23:08;;;;;;;20.10;13.82;;;21.10;99.90;;;;;;5126142;27;20070;-73
2022/07/23 02:25:34;;;;;;;22.45;15.70;;;21.10;99.90;;;;;;5123411;27;20039;-74
2022/07/23 02:27:59;;;;;;;22.73;14.43;;;21.10;99.90;;;;;;5126916;27;20425;-74
2022/07/23 02:30:25;;;;;;;37.40;15.18;;;21.10;99.90;;;;;;5125397;27;20112;-74
2022/07/23 02:32:51;;;;;;;26.52;16.42;;;21.10;99.90;;;;;;5125305;27;20055;-74
2022/07/23 02:35:17;;;;;;;25.35;17.20;;;21.20;99.90;;;;;;5123438;27;20121;-74
2022/07/23 02:37:43;;;;;;;20.20;14.32;;;21.20;99.90;;;;;;5126502;27;20592;-74
2022/07/23 02:40:09;;;;;;;26.95;15.80;;;21.10;99.90;;;;;;5125437;27;20133;-74
2022/07/23 02:42:35;;;;;;;19.60;14.00;;;21.20;99.90;;;;;;5124602;27;20552;-74
2022/07/23 02:45:01;;;;;;;29.88;16.52;;;21.20;99.90;;;;;;5124585;27;20047;-74
2022/07/23 02:47:26;;;;;;;36.78;19.70;;;21.20;99.90;;;;;;5124331;27;20427;-74
2022/07/23 02:49:52;;;;;;;32.78;18.45;;;21.10;99.90;;;;;;5124403;27;20093;-74
2022/07/23 02:52:18;;;;;;;44.97;20.65;;;21.10;99.90;;;;;;5125102;27;21299;-74
2022/07/23 02:54:44;;;;;;;34.97;14.90;;;21.00;99.90;;;;;;5126078;27;20134;-74
2022/07/23 02:57:09;;;;;;;37.92;16.92;;;21.00;99.90;;;;;;5128806;27;20039;-74
2022/07/23 02:59:35;;;;;;;35.55;17.30;;;20.90;99.90;;;;;;5128433;27;20463;-74
2022/07/23 03:02:01;;;;;;;32.47;16.63;;;20.90;99.90;;;;;;5128146;27;20040;-74
2022/07/23 03:04:27;;;;;;;34.80;16.20;;;20.80;99.90;;;;;;5127447;27;20049;-74
2022/07/23 03:06:52;;;;;;;27.73;15.45;;;20.80;99.90;;;;;;5128417;27;20414;-74
2022/07/23 03:09:18;;;;;;;27.73;15.35;;;20.80;99.90;;;;;;5126298;27;20115;-74
2022/07/23 03:11:44;;;;;;;27.05;14.45;;;20.80;99.90;;;;;;5128464;27;20413;-74
2022/07/23 03:14:13;;;;;;;30.30;15.05;;;20.80;99.90;;;;;;5128452;27;20489;-74
2022/07/23 03:16:38;;;;;;;28.42;15.57;;;20.90;99.90;;;;;;5127190;27;20543;-74
2022/07/23 03:19:04;;;;;;;28.77;16.70;;;20.80;99.90;;;;;;5127884;27;20126;-74
2022/07/23 03:21:30;;;;;;;21.08;13.68;;;20.90;99.90;;;;;;5127351;27;20047;-74
2022/07/23 03:23:56;;;;;;;19.88;12.70;;;20.90;99.90;;;;;;5126034;27;20490;-74
2022/07/23 03:26:25;;;;;;;18.65;12.43;;;20.80;99.90;;;;;;5127122;27;20046;-74
2022/07/23 03:28:51;;;;;;;23.70;14.10;;;20.90;99.90;;;;;;5128077;27;20046;-74
2022/07/23 03:31:16;;;;;;;25.88;13.75;;;20.90;99.90;;;;;;5129777;27;20040;-74
2022/07/23 03:33:42;;;;;;;23.67;14.18;;;20.90;99.90;;;;;;5126609;27;20077;-74
2022/07/23 03:36:08;;;;;;;25.90;14.38;;;20.90;99.90;;;;;;5127216;27;20534;-74
2022/07/23 03:38:34;;;;;;;20.75;13.60;;;20.80;99.90;;;;;;5127382;27;20154;-74
2022/07/23 03:41:00;;;;;;;24.83;14.10;;;20.80;99.90;;;;;;5128074;27;20593;-74
2022/07/23 03:43:26;;;;;;;25.25;14.10;;;20.80;99.90;;;;;;5127306;27;20093;-74
2022/07/23 03:45:51;;;;;;;21.25;15.05;;;20.70;99.90;;;;;;5128969;27;20544;-74
2022/07/23 03:48:17;;;;;;;24.88;14.25;;;20.70;99.90;;;;;;5127385;27;20158;-74
2022/07/23 03:50:43;;;;;;;24.73;13.40;;;20.60;99.90;;;;;;5125783;27;20091;-74
2022/07/23 03:53:09;;;;;;;25.73;13.40;;;20.60;99.90;;;;;;5127314;27;20036;-73
2022/07/23 03:55:34;;;;;;;24.30;15.57;;;20.70;99.90;;;;;;5126095;27;20126;-73
2022/07/23 03:58:00;;;;;;;21.60;13.25;;;20.60;99.90;;;;;;5126682;27;20135;-73
2022/07/23 04:00:26;;;;;;;24.15;14.50;;;20.60;99.90;;;;;;5127660;27;20473;-73
2022/07/23 04:02:52;;;;;;;25.20;13.93;;;20.50;99.90;;;;;;5126981;27;20412;-73
2022/07/23 04:05:18;;;;;;;28.77;12.90;;;20.50;99.90;;;;;;5126297;27;20128;-73
2022/07/23 04:07:43;;;;;;;23.50;14.13;;;20.50;99.90;;;;;;5125270;27;20116;-73
2022/07/23 04:10:09;;;;;;;23.85;14.85;;;20.40;99.90;;;;;;5127853;27;20056;-75
2022/07/23 04:12:35;;;;;;;27.75;15.43;;;20.40;99.90;;;;;;5128483;27;20039;-73
2022/07/23 04:15:01;;;;;;;30.13;14.77;;;20.40;99.90;;;;;;5126952;27;20174;-73
2022/07/23 04:17:28;;;;;;;26.67;14.98;;;20.40;99.90;;;;;;5127794;27;20035;-73
2022/07/23 04:19:54;;;;;;;23.33;13.38;;;20.40;99.90;;;;;;5125985;27;20073;-73
2022/07/23 04:22:19;;;;;;;24.45;14.07;;;20.40;99.90;;;;;;5127415;27;20094;-73
2022/07/23 04:24:45;;;;;;;26.48;15.73;;;20.40;99.90;;;;;;5124808;27;20576;-73
2022/07/23 04:27:11;;;;;;;23.85;13.80;;;20.40;99.90;;;;;;5125316;27;20035;-73
2022/07/23 04:29:36;;;;;;;22.23;14.05;;;20.50;99.90;;;;;;5127313;27;20167;-73
2022/07/23 04:32:02;;;;;;;26.95;12.68;;;20.50;99.90;;;;;;5126640;27;20039;-73
2022/07/23 04:34:28;;;;;;;25.77;13.90;;;20.50;99.90;;;;;;5125657;27;20043;-73
2022/07/23 04:36:54;;;;;;;24.23;13.60;;;20.50;99.90;;;;;;5126721;27;20120;-73
2022/07/23 04:39:20;;;;;;;20.48;12.95;;;20.50;99.90;;;;;;5127616;27;20044;-73
2022/07/23 04:41:46;;;;;;;24.55;13.85;;;20.40;99.90;;;;;;5126980;27;20047;-73
2022/07/23 04:44:11;;;;;;;22.05;13.40;;;20.40;99.90;;;;;;5128110;27;20039;-73
2022/07/23 04:46:37;;;;;;;24.55;13.32;;;20.50;99.90;;;;;;5125870;27;20724;-73
2022/07/23 04:49:03;;;;;;;25.08;12.73;;;20.50;99.90;;;;;;5126438;27;20051;-73
2022/07/23 04:51:29;;;;;;;22.02;12.15;;;20.50;99.90;;;;;;5126683;27;20047;-73
2022/07/23 04:53:55;;;;;;;24.17;13.95;;;20.50;99.90;;;;;;5125977;27;20044;-73
2022/07/23 04:56:21;;;;;;;33.33;13.15;;;20.50;99.90;;;;;;5126619;27;20170;-73
2022/07/23 04:58:47;;;;;;;24.75;13.25;;;20.40;99.90;;;;;;5125388;27;20051;-76
2022/07/23 05:01:13;;;;;;;30.58;14.38;;;20.40;99.90;;;;;;5125936;27;20047;-73
2022/07/23 05:03:38;;;;;;;27.23;12.43;;;20.40;99.90;;;;;;5126267;27;20069;-72
2022/07/23 05:06:04;;;;;;;30.33;12.75;;;20.40;99.90;;;;;;5124786;27;20043;-72
2022/07/23 05:08:30;;;;;;;27.80;14.65;;;20.40;99.90;;;;;;5127254;27;20047;-72
2022/07/23 05:10:56;;;;;;;23.30;12.63;;;20.40;99.90;;;;;;5127151;27;20583;-72
2022/07/23 05:13:21;;;;;;;20.13;12.57;;;20.40;99.90;;;;;;5123418;27;20419;-73
2022/07/23 05:15:47;;;;;;;26.60;14.30;;;20.40;99.90;;;;;;5128068;27;20096;-73
2022/07/23 05:18:13;;;;;;;23.85;13.07;;;20.40;99.90;;;;;;5123361;27;20522;-72
2022/07/23 05:20:39;;;;;;;34.38;14.50;;;20.50;99.90;;;;;;5125610;27;20046;-73
2022/07/23 05:23:05;;;;;;;24.27;13.75;;;20.40;99.90;;;;;;5126568;27;20043;-73
2022/07/23 05:25:31;;;;;;;24.48;11.50;;;20.40;99.90;;;;;;5123429;27;20395;-73
2022/07/23 05:27:56;;;;;;;23.77;13.05;;;20.50;99.90;;;;;;5125194;27;20075;-73
2022/07/23 05:30:22;;;;;;;22.98;12.90;;;20.50;99.90;;;;;;5125157;27;20073;-72
2022/07/23 05:32:48;;;;;;;26.02;14.13;;;20.50;99.90;;;;;;5126706;27;20044;-72
2022/07/23 05:35:14;;;;;;;26.83;12.32;;;20.50;99.90;;;;;;5125309;27;20489;-73
2022/07/23 05:37:39;;;;;;;23.42;11.95;;;20.50;99.90;;;;;;5125850;27;20513;-72
2022/07/23 05:40:08;;;;;;;21.00;11.85;;;20.50;99.90;;;;;;5125420;27;20588;-73
2022/07/23 05:42:39;;;;;;;27.85;12.60;;;20.50;99.90;;;;;;5126554;27;20545;-72
2022/07/23 05:45:05;;;;;;;17.40;12.07;;;20.60;99.90;;;;;;5125597;27;20031;-73
2022/07/23 05:47:49;;;;;;;21.30;11.07;;;20.60;99.90;;;;;;5126240;27;20051;-73
2022/07/23 05:50:16;;;;;;;23.13;13.40;;;20.60;99.90;;;;;;5125592;27;20533;-73
2022/07/23 05:52:42;;;;;;;19.50;10.80;;;20.60;99.90;;;;;;5126400;27;20618;-73
2022/07/23 05:55:09;;;;;;;20.50;12.75;;;20.60;99.90;;;;;;5125005;27;20050;-73
2022/07/23 05:57:36;;;;;;;20.75;10.82;;;20.60;99.90;;;;;;5126110;27;20047;-73
2022/07/23 06:00:04;;;;;;;19.67;11.95;;;20.60;99.90;;;;;;5124842;27;20865;-73
2022/07/23 06:02:29;;;;;;;15.50;10.88;;;20.60;99.90;;;;;;5124334;27;20099;-72
2022/07/23 06:04:55;;;;;;;19.27;10.32;;;20.60;99.90;;;;;;5125357;27;20129;-73
2022/07/23 06:07:21;;;;;;;19.17;10.75;;;20.50;99.90;;;;;;5126121;27;20043;-73
2022/07/23 06:09:48;;;;;;;19.27;11.25;;;20.60;99.90;;;;;;5124198;27;20127;-72
2022/07/23 06:12:17;;;;;;;14.70;9.45;;;20.70;99.90;;;;;;5126038;27;20096;-72
2022/07/23 06:14:43;;;;;;;20.10;11.65;;;20.80;99.90;;;;;;5124936;27;20043;-73
2022/07/23 06:17:09;;;;;;;15.07;10.80;;;20.70;99.90;;;;;;5125776;27;20071;-73
2022/07/23 06:19:35;;;;;;;18.02;10.27;;;20.80;99.90;;;;;;5124562;27;20428;-73
2022/07/23 06:22:01;;;;;;;14.95;9.32;;;20.80;99.90;;;;;;5125610;27;20137;-73
2022/07/23 06:24:26;;;;;;;17.38;10.90;;;20.80;99.90;;;;;;5125695;27;20035;-73
2022/07/23 06:26:52;;;;;;;15.10;9.13;;;20.80;99.90;;;;;;5107576;27;20043;-72
2022/07/23 06:29:18;;;;;;;16.77;10.02;;;20.80;99.90;;;;;;5124688;27;20051;-73
2022/07/23 06:31:43;;;;;;;15.23;8.95;;;20.80;99.90;;;;;;5124599;27;21247;-72
2022/07/23 06:34:09;;;;;;;19.02;9.95;;;20.80;99.90;;;;;;5124830;27;20130;-72
2022/07/23 06:36:35;;;;;;;11.63;8.18;;;20.80;99.90;;;;;;5123676;27;20132;-72
2022/07/23 06:39:01;;;;;;;13.63;8.80;;;20.80;99.90;;;;;;5123279;27;20050;-73
2022/07/23 06:41:26;;;;;;;14.88;9.23;;;20.80;99.90;;;;;;5123548;27;20156;-73
2022/07/23 06:43:52;;;;;;;14.73;8.30;;;20.80;99.90;;;;;;5126710;27;20042;-73
2022/07/23 06:46:18;;;;;;;21.40;8.23;;;20.90;99.90;;;;;;5124503;27;20540;-73
2022/07/23 06:48:44;;;;;;;13.90;8.57;;;21.00;99.90;;;;;;5125399;27;20040;-73
2022/07/23 06:51:10;;;;;;;12.82;8.52;;;21.00;99.90;;;;;;5125763;27;20497;-73
2022/07/23 06:53:35;;;;;;;16.58;8.95;;;21.20;99.90;;;;;;5125042;27;20528;-73
2022/07/23 06:56:01;;;;;;;13.00;9.57;;;21.20;99.90;;;;;;5124503;27;20541;-73
2022/07/23 06:58:27;;;;;;;17.77;9.20;;;21.10;99.90;;;;;;5125033;27;20053;-72
2022/07/23 07:00:53;;;;;;;17.30;9.65;;;21.10;99.90;;;;;;5124069;27;20032;-72
2022/07/23 07:03:19;;;;;;;18.38;9.55;;;21.00;99.90;;;;;;5125502;27;20066;-72
2022/07/23 07:05:45;;;;;;;18.45;9.48;;;20.90;99.90;;;;;;5125536;27;20043;-72
2022/07/23 07:08:11;;;;;;;12.95;8.70;;;20.90;99.90;;;;;;5123815;27;20507;-71
2022/07/23 07:10:37;;;;;;;14.70;9.02;;;20.90;99.90;;;;;;5124970;27;20054;-72
2022/07/23 07:13:02;;;;;;;19.70;9.80;;;20.90;99.90;;;;;;5124085;27;20031;-71
2022/07/23 07:15:28;;;;;;;16.58;8.27;;;20.90;99.90;;;;;;5126330;27;20054;-72
2022/07/23 07:17:54;;;;;;;11.95;7.32;;;20.90;99.90;;;;;;5123837;27;20654;-72
2022/07/23 07:20:20;;;;;;;14.65;8.35;;;20.90;99.90;;;;;;5125963;27;20039;-72
2022/07/23 07:22:45;;;;;;;14.20;9.02;;;20.90;99.90;;;;;;5126809;27;20028;-72
2022/07/23 07:25:11;;;;;;;15.65;8.23;;;20.90;99.90;;;;;;5125302;27;20040;-72
2022/07/23 07:27:37;;;;;;;14.00;9.18;;;20.90;99.90;;;;;;5124119;27;20040;-72
2022/07/23 07:30:04;;;;;;;12.73;9.30;;;20.90;99.90;;;;;;5126078;27;20528;-72
2022/07/23 07:32:32;;;;;;;15.48;8.25;;;20.90;99.90;;;;;;5126886;27;20043;-72
2022/07/23 07:34:58;;;;;;;16.40;9.45;;;20.90;99.90;;;;;;5124785;27;20100;-72
2022/07/23 07:37:24;;;;;;;17.08;8.75;;;20.90;99.90;;;;;;5122801;27;21079;-72
2022/07/23 07:39:49;;;;;;;12.85;8.38;;;21.00;99.90;;;;;;5125300;27;20052;-72
2022/07/23 07:42:15;;;;;;;13.13;8.23;;;21.00;99.90;;;;;;5126073;27;20378;-72
2022/07/23 07:44:41;;;;;;;14.57;8.43;;;20.90;99.90;;;;;;5127781;27;20619;-72
2022/07/23 07:47:07;;;;;;;14.73;8.55;;;20.90;99.90;;;;;;5128756;27;20047;-72
2022/07/23 07:49:33;;;;;;;16.17;8.18;;;21.00;99.90;;;;;;5129343;27;20035;-72
2022/07/23 07:51:59;;;;;;;19.25;8.73;;;20.90;99.90;;;;;;5110334;27;20414;-72
2022/07/23 07:54:24;;;;;;;14.20;8.32;;;20.80;99.90;;;;;;5129125;27;20110;-72
2022/07/23 07:56:50;;;;;;;18.00;8.95;;;20.90;99.90;;;;;;5128711;27;20043;-72
2022/07/23 07:59:16;;;;;;;14.48;8.82;;;20.90;99.90;;;;;;5128668;27;20039;-72
2022/07/23 08:01:41;;;;;;;14.77;9.90;;;20.90;99.90;;;;;;5130744;27;20031;-72
2022/07/23 08:04:07;;;;;;;15.30;7.50;;;20.90;99.90;;;;;;5130595;27;20519;-72
2022/07/23 08:06:33;;;;;;;13.57;9.13;;;21.00;99.90;;;;;;5128300;27;20760;-72
2022/07/23 08:08:59;;;;;;;11.57;7.88;;;21.00;99.90;;;;;;5128050;27;20462;-72
2022/07/23 08:11:24;;;;;;;14.23;8.85;;;21.10;99.90;;;;;;5127920;27;20527;-72
2022/07/23 08:13:50;;;;;;;17.15;8.80;;;21.20;99.90;;;;;;5127624;27;20039;-72
2022/07/23 08:16:16;;;;;;;15.73;9.35;;;21.10;99.90;;;;;;5128019;27;20036;-72
2022/07/23 08:18:42;;;;;;;14.02;8.05;;;21.10;99.90;;;;;;5128993;27;20059;-72
2022/07/23 08:21:08;;;;;;;14.35;8.32;;;21.00;99.90;;;;;;5127092;27;20047;-74
2022/07/23 08:23:34;;;;;;;15.93;8.63;;;21.00;99.90;;;;;;5127658;27;20047;-72
2022/07/23 08:26:00;;;;;;;19.08;8.80;;;21.10;99.90;;;;;;5126884;27;20043;-71
2022/07/23 08:28:27;;;;;;;14.13;8.45;;;21.20;99.90;;;;;;5127196;27;20038;-71
2022/07/23 08:30:53;;;;;;;14.13;9.63;;;21.40;99.90;;;;;;5129973;27;20032;-72
2022/07/23 08:33:19;;;;;;;18.73;9.40;;;21.50;99.90;;;;;;5127132;27;20468;-72
2022/07/23 08:35:47;;;;;;;18.20;9.10;;;21.40;99.90;;;;;;5128256;27;20042;-72
2022/07/23 08:38:15;;;;;;;13.40;8.98;;;21.40;99.90;;;;;;5128417;27;20035;-72
2022/07/23 08:40:44;;;;;;;18.90;9.82;;;21.40;99.90;;;;;;5129327;27;20521;-71
2022/07/23 08:43:18;;;;;;;11.98;8.13;;;21.30;99.90;;;;;;5127446;27;20697;-72
2022/07/23 08:45:47;;;;;;;12.70;8.35;;;21.30;99.90;;;;;;5128917;27;20065;-72
2022/07/23 08:48:33;;;;;;;16.08;9.00;;;21.30;99.90;;;;;;5128109;27;20039;-72
2022/07/23 08:51:01;;;;;;;14.23;8.57;;;21.40;99.90;;;;;;5128638;27;20031;-72
2022/07/23 08:53:28;;;;;;;11.68;7.70;;;21.40;99.90;;;;;;5126133;27;20040;-72
2022/07/23 08:56:01;;;;;;;14.05;8.98;;;21.50;99.90;;;;;;5128865;27;20580;-72
2022/07/23 08:58:28;;;;;;;14.77;8.00;;;21.60;99.90;;;;;;5125881;27;20361;-72
2022/07/23 09:00:54;;;;;;;14.68;6.93;;;21.50;99.90;;;;;;5127605;27;20047;-72
2022/07/23 09:03:26;;;;;;;10.90;7.78;;;21.60;99.90;;;;;;5127248;27;20044;-72
2022/07/23 09:05:52;;;;;;;;;;;21.70;99.90;;;;;;5128870;27;20175;-72
2022/07/23 09:08:21;;;;;;;15.30;8.45;;;21.90;99.90;;;;;;5127048;27;19916;-72
2022/07/23 09:10:55;;;;;;;8.70;6.88;;;21.90;99.90;;;;;;5128825;27;20040;-72
2022/07/23 09:13:26;;;;;;;11.38;7.60;;;21.90;99.90;;;;;;5127848;27;20507;-72
2022/07/23 09:15:53;;;;;;;11.75;8.00;;;21.80;99.90;;;;;;5127741;27;20044;-72
2022/07/23 09:18:19;;;;;;;10.05;7.43;;;21.80;99.90;;;;;;5126697;27;20525;-72
2022/07/23 09:20:45;;;;;;;12.27;7.38;;;21.80;99.90;;;;;;5128713;27;20066;-72
2022/07/23 09:23:10;;;;;;;13.57;6.40;;;22.00;99.90;;;;;;5127635;27;20039;-72
2022/07/23 09:25:36;;;;;;;11.65;7.30;;;22.10;99.90;;;;;;5127907;27;20433;-72
2022/07/23 09:28:02;;;;;;;12.82;7.15;;;22.20;99.90;;;;;;5127666;27;20050;-72
2022/07/23 09:30:31;;;;;;;15.85;7.72;;;22.20;99.90;;;;;;5125244;27;20419;-72
2022/07/23 09:33:17;;;;;;;12.50;8.10;;;22.30;99.90;;;;;;5126775;27;20870;-72
2022/07/23 09:35:49;;;;;;;12.60;8.40;;;22.30;99.90;;;;;;5125551;27;20077;-72
2022/07/23 09:38:16;;;;;;;11.50;7.10;;;22.20;99.90;;;;;;5126875;27;20536;-72
2022/07/23 09:40:43;;;;;;;12.98;7.60;;;22.20;99.90;;;;;;5126341;27;20588;-71
2022/07/23 09:43:08;;;;;;;12.85;7.43;;;22.30;99.90;;;;;;5127278;27;20120;-72
2022/07/23 09:45:35;;;;;;;10.13;7.28;;;22.50;99.90;;;;;;5126385;27;20041;-72
2022/07/23 09:48:16;;;;;;;11.60;6.70;;;22.80;99.90;;;;;;5125513;27;20032;-72
2022/07/23 09:50:43;;;;;;;11.25;7.78;;;22.90;99.90;;;;;;5128407;27;20480;-72
2022/07/23 09:53:10;;;;;;;10.02;7.32;;;22.80;99.90;;;;;;5126851;27;20127;-72
2022/07/23 09:55:38;;;;;;;12.80;7.80;;;22.80;99.90;;;;;;5127526;27;20035;-72
2022/07/23 09:58:06;;;;;;;9.60;6.43;;;22.70;99.90;;;;;;5126914;27;20062;-73
2022/07/23 10:00:33;;;;;;;13.20;6.90;;;22.70;99.90;;;;;;5128068;27;20042;-72
2022/07/23 10:03:00;;;;;;;12.45;7.18;;;22.80;99.90;;;;;;5125448;27;20220;-72
2022/07/23 10:05:26;;;;;;;11.48;6.45;;;22.90;99.90;;;;;;5126377;27;20324;-72
2022/07/23 10:07:52;;;;;;;13.82;6.88;;;22.90;99.90;;;;;;5126120;27;20046;-73
2022/07/23 10:10:20;;;;;;;12.73;7.07;;;23.00;99.90;;;;;;5108548;27;20532;-72
2022/07/23 10:15:18;;;;;;;10.65;7.22;;;23.20;99.90;;;;;;5125507;27;20046;-72
2022/07/23 10:17:43;;;;;;;11.50;7.63;;;23.30;99.90;;;;;;5126764;27;20429;-72
2022/07/23 10:20:09;;;;;;;12.23;7.13;;;23.40;99.90;;;;;;5126458;27;20533;-73
2022/07/23 10:22:42;;;;;;;11.32;7.28;;;23.50;99.90;;;;;;5125961;27;20036;-72
2022/07/23 10:25:32;;;;;;;9.88;6.32;;;23.70;99.90;;;;;;5125384;27;20032;-72
2022/07/23 10:28:07;;;;;;;8.88;6.40;;;23.70;99.90;;;;;;5128551;27;20040;-72
2022/07/23 10:30:51;;;;;;;10.80;6.43;;;23.70;99.90;;;;;;5125843;27;20035;-72
2022/07/23 10:33:45;;;;;;;9.52;5.75;;;23.70;99.90;;;;;;5125063;27;20028;-72
2022/07/23 10:36:40;;;;;;;9.98;7.38;;;23.70;99.90;;;;;;5127457;27;20126;-72
2022/07/23 10:39:16;;;;;;;9.13;7.18;;;23.60;99.90;;;;;;5124202;27;20051;-72
2022/07/23 10:41:42;;;;;;;8.63;7.60;;;23.70;99.90;;;;;;5126240;27;20395;-72
2022/07/23 10:44:14;;;;;;;10.32;6.60;;;23.70;99.90;;;;;;5127187;27;20097;-72
2022/07/23 10:49:49;;;;;;;9.18;6.53;;;23.50;99.90;;;;;;5125218;27;20631;-72
2022/07/23 10:52:16;;;;;;;10.70;6.28;;;23.50;99.90;;;;;;5125236;27;20934;-72
2022/07/23 10:54:43;;;;;;;9.82;6.57;;;23.50;99.90;;;;;;5127421;27;20097;-72
2022/07/23 10:57:11;;;;;;;9.48;5.40;;;23.50;99.90;;;;;;5125949;27;20042;-72
2022/07/23 11:00:14;;;;;;;9.05;5.88;;;23.50;99.90;;;;;;5126650;27;20043;-72
2022/07/23 11:02:41;;;;;;;10.75;5.80;;;23.40;99.90;;;;;;5127021;27;20416;-72
2022/07/23 11:05:10;;;;;;;7.85;5.70;;;23.40;99.90;;;;;;5125640;27;20036;-72
2022/07/23 11:07:57;;;;;;;9.18;6.57;;;23.40;99.90;;;;;;5126519;27;20028;-73
2022/07/23 11:10:40;;;;;;;8.50;6.15;;;23.50;99.90;;;;;;5126872;27;20047;-72
2022/07/23 11:13:21;;;;;;;10.07;5.93;;;23.80;99.90;;;;;;5126148;27;20066;-72
2022/07/23 11:16:05;;;;;;;8.67;5.57;;;24.00;99.90;;;;;;5128072;27;20522;-72
2022/07/23 11:18:40;;;;;;;9.82;7.07;;;24.20;99.90;;;;;;5128588;27;20150;-72
2022/07/23 11:21:22;;;;;;;9.95;5.82;;;24.10;99.90;;;;;;5128264;27;20074;-72
2022/07/23 11:23:56;;;;;;;;;;;24.00;99.90;;;;;;5129285;27;20041;-72
2022/07/23 11:26:41;;;;;;;8.48;6.15;;;24.00;99.90;;;;;;5111059;27;19924;-72
2022/07/23 11:29:25;;;;;;;8.13;5.88;;;23.90;99.90;;;;;;5126941;27;20058;-72
2022/07/23 11:32:22;;;;;;;6.72;4.90;;;23.90;99.90;;;;;;5127208;27;20089;-72
2022/07/23 11:34:50;;;;;;;7.82;5.22;;;24.00;99.90;;;;;;5129650;27;20039;-72
2022/07/23 11:37:35;;;;;;;8.60;5.15;;;24.00;99.90;;;;;;5130119;27;20173;-72
2022/07/23 11:40:04;;;;;;;7.53;4.88;;;24.00;99.90;;;;;;5127591;27;20036;-72
2022/07/23 11:42:30;;;;;;;8.05;5.38;;;24.00;99.90;;;;;;5130823;27;20023;-72
2022/07/23 11:44:56;;;;;;;11.27;5.03;;;24.00;99.90;;;;;;5128278;27;20473;-72
2022/07/23 11:47:24;;;;;;;8.20;5.32;;;24.00;99.90;;;;;;5129855;27;20040;-73
2022/07/23 11:49:59;;;;;;;6.47;4.78;;;24.00;99.90;;;;;;5128225;27;20074;-72
2022/07/23 11:52:25;;;;;;;9.02;5.10;;;24.00;99.90;;;;;;5129737;27;20031;-72
2022/07/23 11:54:55;;;;;;;9.43;5.50;;;24.00;99.90;;;;;;5129571;27;20046;-72
2022/07/23 11:57:29;;;;;;;8.75;5.32;;;24.00;99.90;;;;;;5129619;27;20540;-72
2022/07/23 12:00:06;;;;;;;9.02;4.97;;;24.10;99.90;;;;;;5129658;27;20118;-72
2022/07/23 12:02:32;;;;;;;7.10;5.00;;;24.10;99.90;;;;;;5109349;27;20035;-72
2022/07/23 12:04:58;;;;;;;10.32;4.70;;;24.10;99.90;;;;;;5127752;27;20040;-72
2022/07/23 12:07:33;;;;;;;11.73;5.13;;;24.20;99.90;;;;;;5129651;27;20043;-72
2022/07/23 12:10:23;;;;;;;6.45;5.32;;;24.20;99.90;;;;;;5128530;27;20058;-72
2022/07/23 12:12:52;;;;;;;8.18;5.35;;;24.20;99.90;;;;;;5111228;27;20525;-72
2022/07/23 12:15:22;;;;;;;9.07;5.43;;;24.40;99.90;;;;;;5127808;27;20428;-72
2022/07/23 12:17:49;;;;;;;10.13;4.70;;;24.50;99.90;;;;;;5130473;27;20040;-73
2022/07/23 12:20:26;;;;;;;5.97;4.47;;;24.70;99.90;;;;;;5126463;27;20417;-72
2022/07/23 12:22:56;;;;;;;8.05;5.47;;;24.90;99.90;;;;;;5110420;27;20036;-72
2022/07/23 12:25:24;;;;;;;10.07;5.95;;;25.10;99.90;;;;;;5127802;27;21042;-72
2022/07/23 12:28:15;;;;;;;6.72;5.28;;;25.30;99.90;;;;;;5128941;27;20584;-72
2022/07/23 12:30:44;;;;;;;9.95;4.93;;;25.30;99.90;;;;;;5127840;27;20508;-72
2022/07/23 12:33:30;;;;;;;7.47;4.88;;;25.30;99.90;;;;;;5128919;27;20523;-72
2022/07/23 12:35:59;;;;;;;13.85;5.68;;;25.30;99.90;;;;;;5127627;27;20441;-72
2022/07/23 12:38:26;;;;;;;7.88;4.95;;;25.30;99.90;;;;;;5127932;27;20039;-72
2022/07/23 12:40:57;;;;;;;7.20;5.38;;;25.30;99.90;;;;;;5108458;27;20044;-72
2022/07/23 12:43:36;;;;;;;9.38;4.78;;;25.30;99.90;;;;;;5128869;27;20031;-72